createdAt,value
2022-10-18T00:06:26.507Z,9.30
2022-10-18T00:13:08.931Z,9.50
2022-10-18T00:19:32.082Z,8.10
2022-10-18T00:25:56.578Z,9.20
2022-10-18T00:32:40.515Z,8.00
2022-10-18T00:39:23.213Z,8.50
2022-10-18T00:46:12.495Z,9.30
2022-10-18T00:53:04.436Z,8.70
2022-10-18T00:59:47.541Z,8.00
2022-10-18T01:06:30.373Z,7.20
2022-10-18T01:13:22.080Z,7.30
2022-10-18T01:20:15.827Z,7.50
2022-10-18T01:27:01.613Z,7.80
2022-10-18T01:40:34.192Z,7.50
2022-10-18T01:47:16.913Z,7.10
2022-10-18T01:54:03.167Z,7.00
2022-10-18T02:00:55.138Z,7.40
2022-10-18T02:07:38.163Z,8.30
2022-10-18T02:14:21.099Z,8.20
2022-10-18T02:21:05.257Z,9.00
2022-10-18T02:27:47.805Z,8.90
2022-10-18T02:34:31.329Z,8.50
2022-10-18T02:41:15.511Z,8.50
2022-10-18T02:47:58.549Z,7.40
2022-10-18T02:54:41.953Z,8.70
2022-10-18T03:01:27.508Z,9.70
2022-10-18T03:08:10.675Z,9.40
2022-10-18T03:14:53.556Z,9.60
2022-10-18T03:21:36.396Z,8.40
2022-10-18T03:28:19.362Z,9.30
2022-10-18T03:35:02.593Z,9.10
2022-10-18T03:41:45.719Z,12.10
2022-10-18T03:48:28.927Z,18.30
2022-10-18T03:55:11.999Z,10.50
2022-10-18T04:01:55.182Z,10.60
2022-10-18T04:08:38.218Z,10.40
2022-10-18T04:15:24.196Z,10.30
2022-10-18T04:22:07.581Z,9.70
2022-10-18T04:28:57.292Z,10.70
2022-10-18T04:35:40.278Z,10.80
2022-10-18T04:42:23.379Z,11.80
2022-10-18T04:49:12.027Z,12.20
2022-10-18T04:55:58.886Z,9.20
2022-10-18T05:02:44.306Z,10.30
2022-10-18T05:09:29.014Z,9.30
2022-10-18T05:16:21.897Z,10.00
2022-10-18T05:23:11.194Z,10.90
2022-10-18T05:30:05.897Z,11.50
2022-10-18T05:36:57.785Z,9.00
2022-10-18T05:43:41.885Z,11.20
2022-10-18T05:49:13.864Z,11.30
2022-10-18T05:54:44.316Z,10.80
2022-10-18T06:00:10.490Z,10.20
2022-10-18T06:11:08.623Z,10.30
2022-10-18T06:16:52.712Z,10.20
2022-10-18T06:22:46.794Z,9.70
2022-10-18T06:28:13.923Z,10.50
2022-10-18T06:33:37.298Z,9.90
2022-10-18T06:39:02.304Z,9.40
2022-10-18T06:44:24.859Z,9.30
2022-10-18T06:50:12.485Z,8.30
2022-10-18T06:56:39.608Z,8.50
2022-10-18T07:03:22.538Z,8.70
2022-10-18T07:10:05.484Z,8.00
2022-10-18T07:16:49.953Z,8.10
2022-10-18T07:23:32.520Z,8.40
2022-10-18T07:30:15.355Z,8.40
2022-10-18T07:36:57.174Z,8.10
2022-10-18T07:43:39.707Z,8.00
2022-10-18T07:50:22.378Z,7.60
2022-10-18T07:56:47.587Z,7.80
2022-10-18T08:03:30.455Z,7.60
2022-10-18T08:10:15.458Z,7.50
2022-10-18T08:17:03.945Z,7.10
2022-10-18T08:23:48.075Z,6.60
2022-10-18T08:30:31.240Z,5.90
2022-10-18T08:37:13.459Z,5.40
2022-10-18T08:44:14.431Z,5.70
2022-10-18T08:50:32.291Z,5.60
2022-10-18T08:57:15.197Z,6.10
2022-10-18T09:04:15.264Z,5.90
2022-10-18T09:10:29.967Z,5.50
2022-10-18T09:17:03.537Z,6.60
2022-10-18T09:23:53.376Z,6.30
2022-10-18T09:29:59.482Z,8.60
2022-10-18T09:36:53.554Z,14.70
2022-10-18T09:43:40.707Z,31.50
2022-10-18T09:57:37.859Z,8.60
2022-10-18T12:28:10.018Z,5.70
2022-10-18T12:35:08.357Z,5.50
2022-10-18T12:54:52.908Z,8.90
2022-10-18T13:01:39.589Z,7.90
2022-10-18T13:08:25.408Z,6.10
2022-10-18T13:15:24.214Z,6.10
2022-10-18T13:21:37.839Z,5.40
2022-10-18T13:27:56.543Z,5.50
2022-10-18T13:33:38.719Z,5.30
2022-10-18T13:39:02.620Z,5.70
2022-10-18T13:45:29.903Z,5.90
2022-10-18T13:52:16.472Z,7.10
2022-10-18T13:58:31.268Z,5.90
2022-10-18T14:05:24.756Z,6.10
2022-10-18T14:12:08.248Z,5.50
2022-10-18T14:18:42.214Z,7.70
2022-10-18T14:24:50.967Z,6.30
2022-10-18T14:31:34.806Z,6.70
2022-10-18T14:37:51.270Z,6.00
2022-10-18T14:43:56.323Z,7.10
2022-10-18T14:50:06.066Z,6.40
2022-10-18T14:57:01.793Z,7.00
2022-10-18T15:03:23.855Z,6.60
2022-10-18T15:09:45.510Z,6.00
2022-10-18T15:15:47.192Z,6.80
2022-10-18T15:29:13.233Z,7.70
2022-10-18T15:36:01.227Z,7.50
2022-10-18T15:42:42.951Z,7.90
2022-10-18T15:49:25.677Z,7.60
2022-10-18T15:56:23.033Z,7.90
2022-10-18T16:03:05.475Z,8.30
2022-10-18T16:09:51.867Z,8.50
2022-10-18T16:16:33.815Z,8.90
2022-10-18T16:23:15.484Z,9.50
2022-10-18T16:30:00.032Z,10.10
2022-10-18T16:36:46.144Z,9.20
2022-10-18T16:43:32.715Z,9.20
2022-10-18T16:50:16.378Z,9.60
2022-10-18T16:56:39.255Z,10.50
2022-10-18T17:02:31.901Z,9.50
2022-10-18T17:08:36.872Z,10.50
2022-10-18T17:15:09.993Z,9.40
2022-10-18T17:20:52.873Z,10.60
2022-10-18T17:26:34.294Z,11.10
2022-10-18T17:31:55.600Z,10.80
2022-10-18T17:38:16.930Z,11.10
2022-10-18T17:44:14.589Z,10.90
2022-10-18T17:50:36.560Z,11.30
2022-10-18T17:56:20.217Z,10.70
2022-10-18T18:01:50.657Z,12.70
2022-10-18T18:07:20.948Z,11.30
2022-10-18T18:13:42.738Z,12.50
2022-10-18T18:20:25.298Z,12.10
2022-10-18T18:27:07.619Z,11.80
2022-10-18T18:33:49.264Z,11.60
2022-10-18T18:40:18.273Z,14.40
2022-10-18T18:45:59.748Z,15.20
2022-10-18T18:51:23.071Z,9.50
2022-10-18T18:56:43.916Z,5.10
2022-10-18T19:02:06.251Z,5.00
2022-10-18T19:07:28.712Z,6.10
2022-10-18T19:12:50.539Z,4.60
2022-10-18T19:18:23.180Z,4.80
2022-10-18T19:23:50.323Z,4.50
2022-10-18T19:29:18.428Z,3.40
2022-10-18T19:34:43.620Z,3.30
2022-10-18T19:40:26.234Z,4.80
2022-10-18T19:45:52.380Z,4.50
2022-10-18T19:51:34.072Z,5.10
2022-10-18T19:57:05.059Z,4.50
2022-10-18T20:02:35.894Z,4.30
2022-10-18T20:07:59.812Z,3.10
2022-10-18T20:13:42.685Z,3.50
2022-10-18T20:19:07.771Z,3.00
2022-10-18T20:24:29.505Z,3.00
2022-10-18T20:30:37.333Z,3.40
2022-10-18T20:36:11.669Z,2.50
2022-10-18T20:46:58.644Z,2.20
2022-10-18T20:53:55.507Z,5.70
2022-10-18T21:00:40.141Z,5.50
2022-10-18T21:07:23.922Z,14.30
2022-10-18T21:14:09.321Z,12.40
2022-10-18T21:20:55.775Z,3.50
2022-10-18T21:27:39.987Z,4.80
2022-10-18T21:34:23.176Z,6.10
2022-10-18T21:41:06.204Z,4.60
2022-10-18T21:47:49.749Z,3.70
2022-10-18T21:54:34.882Z,4.40
2022-10-18T22:01:18.859Z,4.00
2022-10-18T22:08:01.762Z,4.00
2022-10-18T22:14:45.749Z,4.60
2022-10-18T22:21:34.649Z,4.80
2022-10-18T22:28:18.205Z,5.90
2022-10-18T22:35:06.782Z,7.60
2022-10-18T22:41:59.977Z,13.10
2022-10-18T22:47:38.527Z,10.80
2022-10-18T22:53:13.375Z,11.90
2022-10-18T22:58:49.566Z,8.10
2022-10-18T23:04:37.514Z,6.40
2022-10-18T23:15:40.451Z,5.70
2022-10-18T23:21:22.412Z,6.50
2022-10-18T23:27:30.699Z,6.80
2022-10-18T23:32:59.570Z,7.50
2022-10-18T23:38:50.752Z,6.60
2022-10-18T23:44:25.001Z,6.00
2022-10-18T23:50:30.675Z,6.60
